Tiempo atmosférico en la estación meteorológica de Colmenar Viejo, Madrid (1004 m.)



Fecha
DESCASC
Temp. máxima en grados centígrados (hora)
DESCASC
Temp. mínima en grados centígrados (hora)
DESCASC
Temp. media en grados centígrados
DESCASC
Racha de viento máxima en m/sg (hora)
DESCASC
Velocidad máxima media en intervalos de 10 minutos(hora)
DESCASC
Precipitaciones diarias en mm
DESCASC
Precipitaciones de 00:00 a 06:00 en mm
DESCASC
Precipitaciones de 06:00 a 12:00 en mm
DESCASC
Precipitaciones de 12:00 a 18:00 en mm
DESCASC
Precipitaciones de 18:00 a 24:00 en mm
DESCASC
18-05-2019 14.7 (16:30) 3.3 (00:00) 9 7.78 (15:10) 3.61 (15:10) 0 0 0 0 0
26-04-2019 14.3 (18:00) 3.7 (00:00) 9 11.94 (02:40) 6.67 (01:20) 0 0 0 0 0
17-05-2019 14.5 (17:10) 6.2 (00:00) 10.3 13.06 (00:20) 5.56 (00:20) 0.3 0 0 0.3 0
04-05-2019 19.9 (17:50) 1.9 (00:00) 10.9 7.22 (18:50) 4.72 (00:40) 0 0 0 0 0
05-05-2019 19.3 (18:50) 3.8 (00:00) 11.5 6.11 (09:40) 3.06 (04:10) 0 0 0 0 0
27-04-2019 18 (17:50) 5.1 (00:00) 11.5 5.28 (18:00) 2.5 (17:10) 0 0 0 0 0
19-05-2019 17.3 (17:50) 6.2 (00:00) 11.7 6.67 (01:00) 3.33 (01:50) 0 0 0 0 0
20-05-2019 18.2 (19:30) 5.8 (05:50) 12 7.5 (14:30) 3.33 (02:00) 0 0 0 0 0
03-05-2019 16.7 (12:20) 7.9 (00:00) 12.3 11.39 (16:10) 7.5 (16:20) 0 0 0 0 0
09-05-2019 18.5 (15:10) 6.6 (00:00) 12.5 10.28 (02:10) 5.83 (02:10) 0 0 0 0 0
08-05-2019 16.4 (17:10) 9.7 (00:00) 13 15.56 (15:10) 8.89 (17:10) 0 0 0 0 0
06-05-2019 21.5 (17:20) 7.3 (00:00) 14.4 8.06 (18:30) 4.17 (17:30) 0 0 0 0 0
28-04-2019 21.1 (18:50) 7.7 (00:00) 14.4 8.06 (04:00) 4.72 (03:50) 0 0 0 0 0
12-05-2019 24.3 (19:20) 5.1 (00:00) 14.7 10.28 (04:10) 7.5 (04:10) 0 0 0 0 0
07-05-2019 20.2 (17:50) 9.8 (00:00) 15 11.67 (20:40) 7.22 (20:30) 0 0 0 0 0
21-05-2019 21.5 (15:10) 9.2 (06:50) 15.3 8.61 (23:40) 2.78 (18:40) 0 0 0 0 0
02-05-2019 21.1 (19:10) 10.6 (06:50) 15.9 10.56 (00:30) 6.67 (00:10) 0.2 0 0 0.2 0
01-05-2019 21.7 (15:50) 10.3 (00:00) 16 10.83 (23:50) 6.94 (23:59) 0 0 0 0 0
10-05-2019 21.6 (17:40) 10.6 (00:00) 16.1 10.28 (16:30) 5.83 (17:00) 0 0 0 0 0
29-04-2019 22.2 (18:30) 10.7 (00:00) 16.5 7.22 (02:20) 4.17 (02:10) 0 0 0 0 0
30-04-2019 22.8 (18:00) 11 (00:00) 16.9 6.11 (17:30) 3.06 (19:20) 0 0 0 0 0
22-05-2019 24.1 (16:20) 9.9 (07:50) 17 8.33 (02:10) 3.61 (04:00) 0 0 0 0 0
11-05-2019 24 (18:20) 10.6 (00:00) 17.3 12.5 (22:00) 6.11 (22:10) 0 0 0 0 0
16-05-2019 26.2 (16:50) 9 (00:00) 17.6 18.33 (23:40) 8.33 (23:30) 0.3 0 0 0 0.3
14-05-2019 26.2 (18:50) 10.9 (00:00) 18.6 8.06 (00:20) 3.61 (00:10) 0 0 0 0 0
23-05-2019 24.8 (18:30) 13.3 (05:50) 19 10.28 (15:40) 4.17 (15:40) 0 0 0 0 0
13-05-2019 27.9 (18:50) 10.5 (00:00) 19.2 16.94 (22:20) 6.67 (22:30) 0 0 0 0 0
15-05-2019 29.1 (16:20) 16.1 (00:00) 22.6 9.17 (17:50) 4.44 (10:50) 0 0 0 0 0

Gráficas

Temp. máximas Temp. mínimas Temp. medias Precipitaciones Rachas de viento máximas Velocidades máximas media en intervalos de 10 minutos

Datos horarios

Fecha y hora oficial Temperatura (ºC) Velocidad del viento (km/h) Dirección del viento Racha (km/h) Dirección de racha Precipitación (mm) Presión (hPa) Tendencia (hPa) Humedad (%)
2019-05-25 23:00:00 13.8 11 Norte 31 Norte 0 906.1 1.4 39
2019-05-25 22:00:00 14.6 12 Norte 27 Norte 0 905.4 0.7 41
2019-05-25 21:00:00 17.2 13 Norte 32 Noroeste 0 904.9 0.4 37
2019-05-25 20:00:00 20.2 14 Norte 28 Norte 0 904.7 0.1 33
2019-05-25 19:00:00 21 13 Norte 27 Norte 0 904.7 0.1 31
2019-05-25 18:00:00 21.4 6 Norte 28 Noroeste 0 904.5 -0.5 32
2019-05-25 17:00:00 21.4 8 Norte 27 Norte 0 904.6 -0.8 32
2019-05-25 16:00:00 20.6 10 Nordeste 36 Nordeste 0 904.6 -0.9 33
2019-05-25 15:00:00 20.2 14 Nordeste 31 Nordeste 0 905 -0.6 33
2019-05-25 14:00:00 18.7 15 Nordeste 33 Nordeste 0 905.4 -0.2 37
2019-05-25 13:00:00 18 14 Este 35 Este 0 905.5 0.1 39
2019-05-25 12:00:00 17.2 8 Este 24 Nordeste 0 905.6 0.6 42
2019-05-25 11:00:00 15.3 4 Sudeste 14 Sudeste 0 905.6 0.8 49
2019-05-25 10:00:00 14.5 5 Nordeste 14 Este 0 905.4 1.3 49
2019-05-25 09:00:00 12.6 2 Nordeste 6 Este 0 905 0.9 57
2019-05-25 08:00:00 9.3 0 Calma 7 Noroeste 0 904.8 0.8 68
2019-05-25 07:00:00 7.2 3 Oeste 7 Oeste 0 904.1 0 70
2019-05-25 06:00:00 7.5 2 Oeste 10 Norte 0 904.1 0 66
2019-05-25 05:00:00 7.7 0 Calma 8 Nordeste 0 904 -0.3 64
2019-05-25 04:00:00 8.6 4 Norte 12 Norte 0 904.1 -0.7 62
2019-05-25 03:00:00 9.2 4 Nordeste 15 Norte 0 904.1 -0.4 60
2019-05-25 02:00:00 9.1 7 Norte 17 Nordeste 0 904.3 -0.1 62
2019-05-25 01:00:00 9.6 7 Nordeste 25 Norte 0 904.8 1.7 60
2019-05-25 00:00:00 10.3 9 Norte 37 Norte 0 904.5 1.5 55
2019-05-24 23:00:00 11.3 11 Nordeste 27 Norte 0 904.4 2.3 50
2019-05-24 22:00:00 12.3 7 Nordeste 24 Nordeste 0 903.1 1.3 45
2019-05-24 21:00:00 14.4 11 Norte 39 Noroeste 0 903 1 41
2019-05-24 20:00:00 17.2 18 Norte 37 Norte 0 902.1 0.7 37
2019-05-24 19:00:00 19.3 16 Norte 37 Norte 0 901.8 0.1 34
2019-05-24 18:00:00 19.8 18 Norte 38 Noroeste 0 902 0.1 33
2019-05-24 17:00:00 20.4 15 Norte 40 Norte 0 901.4 -0.4 32
2019-05-24 16:00:00 21 14 Norte 39 Norte 0 901.7 -0.2 33
2019-05-24 15:00:00 20.5 17 Nordeste 40 Nordeste 0 901.9 -0.1 37
2019-05-24 14:00:00 19.2 15 Nordeste 36 Nordeste 0 901.8 -0.1 42
2019-05-24 13:00:00 19.5 18 Nordeste 38 Nordeste 0 901.9 0.2 43
2019-05-24 12:00:00 18.1 15 Nordeste 33 Este 0 902 0.6 49
2019-05-24 11:00:00 17.1 15 Nordeste 31 Nordeste 0 901.9 0.8 52
2019-05-24 10:00:00 17.5 12 Norte 29 Nordeste 0 901.7 0.8 51
2019-05-24 09:00:00 16.2 3 Este 12 Este 0 901.4 0.2 56
2019-05-24 08:00:00 14.1 0 Calma 10 Este 0 901.1 0.4 60
2019-05-24 07:00:00 12.7 4 Sudeste 6 Sudeste 0 900.9 0 63
2019-05-24 06:00:00 12.5 4 Noroeste 8 Oeste 0 901.2 0.2 57
2019-05-24 05:00:00 13 4 Sudoeste 8 Oeste 0 900.7 -0.3 48
2019-05-24 04:00:00 14 5 Oeste 13 Sudeste 0 900.9 -0.4 42
2019-05-24 03:00:00 15 7 Sudeste 12 Sudeste 0 901 -0.7 40
2019-05-24 02:00:00 15.4 6 Este 9 Norte 0 901 -1.2 39
2019-05-24 01:00:00 16.5 3 Norte 17 Norte 0 901.3 -0.5 37
2019-05-24 00:00:00 17.9 9 Noroeste 22 Noroeste 0 901.7 0.1 35
2019-05-23 23:00:00 18.5 4 Noroeste 14 Noroeste 0 902.2 0.7 35
2019-05-23 22:00:00 19.4 3 Noroeste 16 Oeste 0 901.8 0.2 34
2019-05-23 21:00:00 20.8 9 Oeste 20 Oeste 0 901.6 -0.6 30
2019-05-23 20:00:00 22.2 11 Sudoeste 24 Sudoeste 0 901.5 -1 27
2019-05-23 19:00:00 24.2 14 Sudoeste 28 Sudoeste 0 901.6 -1.3 27
2019-05-23 18:00:00 22.6 8 Sudoeste 32 Sudoeste 0 902.2 -1 30
2019-05-23 17:00:00 22.8 10 Sudoeste 32 Sudoeste 0 902.5 -1.4 30
2019-05-23 16:00:00 22.4 14 Oeste 37 Sudoeste 0 902.9 -1.7 31
2019-05-23 15:00:00 22.6 15 Sudoeste 32 Sudoeste 0 903.2 -1.8 33
2019-05-23 14:00:00 22.4 12 Sudoeste 34 Sudoeste 0 903.9 -0.9 33
2019-05-23 13:00:00 21.5 9 Sur 17 Sudeste 0 904.6 -0.2 35
2019-05-23 12:00:00 20.3 3 Sur 18 Sudeste 0 905 0.6 37
2019-05-23 11:00:00 19.7 5 Sudoeste 11 Sudoeste 0 904.8 0.7 36
2019-05-23 10:00:00 18.4 3 Noroeste 11 Norte 0 904.8 1 38
2019-05-23 09:00:00 15.8 4 Noroeste 9 Oeste 0 904.4 0.7 43
2019-05-23 08:00:00 15.7 6 Este 12 Este 0 904.1 0.5 40
2019-05-23 07:00:00 14 0 Calma 6 Nordeste 0 903.8 0.2 41
2019-05-23 06:00:00 13.5 5 Noroeste 16 Noroeste 0 903.7 -0.1 42
2019-05-23 05:00:00 15.3 5 Nordeste 18 Norte 0 903.6 0 38
2019-05-23 04:00:00 16.1 6 Norte 15 Nordeste 0 903.6 -0.4 38
2019-05-23 03:00:00 16.3 0 Calma 13 Sudeste 0 903.8 -0.4 39
2019-05-23 02:00:00 16.8 6 Norte 10 Norte 0 903.6 -0.5 37
2019-05-23 01:00:00 16.5 5 Noroeste 8 Noroeste 0 904 0.4 38
2019-05-23 00:00:00 16.9 3 Noroeste 8 Noroeste 0 904.2 0.8 37
2019-05-22 23:00:00 17.6 4 Noroeste 9 Noroeste 0 904.1 0.9 35
2019-05-22 22:00:00 19.3 5 Oeste 9 Oeste 0 903.6 0.4 32
2019-05-22 21:00:00 21.7 3 Sudoeste 13 Sudoeste 0 903.4 0.2 29
2019-05-22 20:00:00 22.2 7 Sudoeste 15 Sur 0 903.2 -0.3 28
2019-05-22 19:00:00 22.8 4 Sur 14 Oeste 0 903.2 -0.6 28
2019-05-22 18:00:00 23.6 2 Sudoeste 18 Sudeste 0 903.2 -0.9 27
2019-05-22 17:00:00 23 3 Sur 21 Sudeste 0 903.5 -1.1 28
2019-05-22 16:00:00 23.9 9 Sur 17 Sur 0 903.8 -1.1 29
2019-05-22 15:00:00 23 4 Sur 18 Sudoeste 0 904.1 -0.8 30
2019-05-22 14:00:00 21.5 4 Este 19 Sur 0 904.6 -0.1 31
2019-05-22 13:00:00 21.2 2 Sudeste 18 Sur 0 904.9 0.5 33
2019-05-22 12:00:00 18.9 9 Sur 26 Sudeste 0 904.9 0.5 39
2019-05-22 11:00:00 18.3 9 Sudeste 17 Este 0 904.7 0.5 41
2019-05-22 10:00:00 17.5 0 Calma 10 Este 0 904.4 0.7 43
2019-05-22 09:00:00 13.4 0 Calma 5 Noroeste 0 904.4 0.5 52
2019-05-22 08:00:00 10.6 4 Noroeste 9 Noroeste 0 904.2 0.4 54
2019-05-22 07:00:00 10.4 3 Sudoeste 4 Sudoeste 0 903.7 -0.2 53
2019-05-22 06:00:00 10.5 0 Calma 11 Nordeste 0 903.9 0 51
2019-05-22 05:00:00 11.3 5 Nordeste 18 Este 0 903.8 0.2 47
2019-05-22 04:00:00 12.1 13 Nordeste 25 Nordeste 0 903.9 0.6 45
2019-05-22 03:00:00 12.6 7 Nordeste 30 Este 0 903.9 0.8 42
2019-05-22 02:00:00 13.1 13 Nordeste 29 Nordeste 0 903.6 0.5 42
2019-05-22 01:00:00 13.9 10 Norte 22 Norte 0 903.3 0.9 40
2019-05-22 00:00:00 14.6 8 Norte 31 Este 0 903.1 1 38
2019-05-21 23:00:00 15.3 9 Norte 15 Nordeste 0 903.1 1.6 37
2019-05-21 22:00:00 16.4 7 Norte 12 Norte 0 902.4 0.8 36
2019-05-21 21:00:00 18.8 2 Nordeste 12 Norte 0 902.1 0.4 32
2019-05-21 20:00:00 19.8 5 Nordeste 20 Sudeste 0 901.5 0 31
2019-05-21 19:00:00 18.8 8 Norte 19 Norte 0 901.6 0.2 32
2019-05-21 18:00:00 19 8 Norte 18 Norte 0 901.7 0 32
2019-05-21 17:00:00 19.7 6 Norte 26 Norte 0 901.5 -0.3 31
2019-05-21 16:00:00 19.4 5 Sudoeste 19 Este 0 901.4 -0.5 30
2019-05-21 15:00:00 20.9 7 Este 15 Nordeste 0 901.7 -0.2 29
2019-05-21 14:00:00 19.9 3 Sur 19 Nordeste 0 901.8 0 31
2019-05-21 13:00:00 18.7 9 Nordeste 21 Este 0 901.9 0.3 32
2019-05-21 12:00:00 17.5 3 Nordeste 13 Nordeste 0 901.9 0.6 35
2019-05-21 11:00:00 16.5 3 Este 10 Este 0 901.8 0.8 38
2019-05-21 10:00:00 13.3 4 Noroeste 10 Noroeste 0 901.6 0.7 48
2019-05-21 09:00:00 11.4 4 Norte 11 Norte 0 901.3 0.9 52
2019-05-21 08:00:00 10.5 3 Norte 8 Norte 0 901 0.8 53
2019-05-21 07:00:00 9.3 3 Noroeste 7 Noroeste 0 900.9 0.9 53
2019-05-21 06:00:00 10.3 3 Sudoeste 10 Sudeste 0 900.4 0.4 45
2019-05-21 05:00:00 10.2 4 Oeste 9 Este 0 900.2 0.2 42
2019-05-21 04:00:00 10.8 6 Este 13 Este 0 900 -0.2 41
2019-05-21 03:00:00 11.5 6 Este 15 Sudeste 0 900 -0.2 38
2019-05-21 02:00:00 12.3 8 Norte 14 Norte 0 900 -0.1 37
2019-05-21 01:00:00 12.5 8 Norte 16 Norte 0 900.2 0.8 37
2019-05-21 00:00:00 12.5 5 Norte 12 Norte 0 900.2 1.1 37
2019-05-20 23:00:00 13.1 4 Norte 15 Nordeste 0 900.1 1.2 37
2019-05-20 22:00:00 14.4 4 Norte 9 Sudoeste 0 899.4 0.5 33
2019-05-20 21:00:00 15.7 4 Sudoeste 14 Sudoeste 0 899.1 0.1 31
2019-05-20 20:00:00 16.4 6 Sudoeste 18 Sudoeste 0 898.9 -0.3 30
2019-05-20 19:00:00 17.1 5 Sudoeste 14 Sudeste 0 898.9 -0.3 30
2019-05-20 18:00:00 17.3 4 Sur 18 Sudoeste 0 899 -0.7 30
2019-05-20 17:00:00 16.8 8 Sudoeste 20 Sur 0 899.2 -0.7 32
2019-05-20 16:00:00 16.9 7 Sudoeste 20 Sudoeste 0 899.2 -0.7 32
2019-05-20 15:00:00 16.6 8 Sur 27 Sudeste 0 899.7 -0.5 33
2019-05-20 14:00:00 16.2 6 Sur 23 Sudeste 0 899.9 -0.4 33
2019-05-20 13:00:00 15.3 7 Sur 22 Sur 0 899.9 -0.3 37
2019-05-20 12:00:00 14 6 Sur 16 Sudoeste 0 900.2 0.3 43
2019-05-20 11:00:00 12.3 4 Sur 15 Sudeste 0 900.3 0.7 47
2019-05-20 10:00:00 11.7 0 Calma 11 Este 0 900.2 1 50
2019-05-20 09:00:00 10.6 4 Sudeste 12 Este 0 899.9 0.6 55
2019-05-20 08:00:00 8.9 3 Nordeste 14 Nordeste 0 899.6 0.2 60
2019-05-20 07:00:00 6.1 4 Nordeste 17 Nordeste 0 899.2 -0.2 66
2019-05-20 06:00:00 5.8 6 Norte 18 Norte 0 899.3 -0.3 66
2019-05-20 05:00:00 6.4 6 Norte 22 Nordeste 0 899.4 0 63
2019-05-20 04:00:00 7.4 5 Nordeste 19 Este 0 899.4 -0.2 60
2019-05-20 03:00:00 7.7 6 Norte 18 Nordeste 0 899.6 -0.1 58
2019-05-20 02:00:00 8.6 12 Nordeste 24 Nordeste 0 899.4 0 53
2019-05-20 01:00:00 9.8 12 Este 23 Este 0 899.6 0.8 42
2019-05-20 00:00:00 9.6 5 Norte 10 Norte 0 899.7 1.3 39
2019-05-19 23:00:00 10.3 3 Nordeste 10 Norte 0 899.4 1.5 37
2019-05-19 22:00:00 10.8 6 Norte 17 Noroeste 0 898.8 1 35
2019-05-19 21:00:00 13.1 5 Noroeste 21 Norte 0 898.4 0.4 32
2019-05-19 20:00:00 15.5 8 Norte 20 Noroeste 0 897.9 -0.2 31
2019-05-19 19:00:00 14.4 5 Norte 19 Oeste 0 897.8 -0.7 33
2019-05-19 18:00:00 16.8 4 Noroeste 19 Nordeste 0 898 -0.6 32
2019-05-19 17:00:00 15.3 4 Norte 16 Nordeste 0 898.1 -0.6 36
2019-05-19 16:00:00 15 6 Este 18 Norte 0 898.5 -0.2 37
2019-05-19 15:00:00 14.6 3 Norte 17 Oeste 0 898.6 -0.1 36
2019-05-19 14:00:00 13.7 2 Norte 18 Oeste 0 898.7 -0.2 39
2019-05-19 13:00:00 12.6 4 Oeste 13 Sudoeste 0 898.7 -0.1 43
2019-05-19 12:00:00 12 6 Sudoeste 15 Sur 0 898.7 0.3 44
2019-05-19 11:00:00 11.6 6 Sudeste 19 Sudoeste 0 898.9 0.8 49
2019-05-19 10:00:00 10.1 8 Sur 19 Sudoeste 0 898.8 1.1 55
2019-05-19 09:00:00 8.1 5 Oeste 10 Oeste 0 898.4 0.9 62
2019-05-19 08:00:00 7 2 Oeste 8 Sudeste 0 898.1 0.6 62
2019-05-19 07:00:00 6.5 5 Sudeste 10 Sudeste 0 897.7 0.2 62
2019-05-19 06:00:00 6.6 8 Sudeste 12 Sudeste 0 897.5 -0.3 60
2019-05-19 05:00:00 7.3 3 Sur 21 Oeste 0 897.5 -0.6 57
2019-05-19 04:00:00 7.8 8 Noroeste 19 Norte 0 897.5 -1.1 56
2019-05-19 03:00:00 7.7 7 Norte 21 Norte 0 897.8 -0.7 56
2019-05-19 02:00:00 8.3 11 Noroeste 21 Noroeste 0 898.1 -0.5 51
2019-05-19 01:00:00 9.1 11 Norte 24 Noroeste 0 898.6 0.4 48
2019-05-19 00:00:00 9.6 6 Norte 14 Noroeste 0 898.5 0.7 46
2019-05-18 23:00:00 10 6 Norte 12 Noroeste 0 898.6 1 45
2019-05-18 22:00:00 10.1 4 Noroeste 13 Noroeste 0 898.2 1 44
2019-05-18 21:00:00 10.7 6 Noroeste 19 Noroeste 0 897.8 0.7 41
2019-05-18 20:00:00 11.7 5 Norte 23 Norte 0 897.6 0.7 38
2019-05-18 19:00:00 12.4 8 Noroeste 21 Noroeste 0 897.2 0 36
2019-05-18 18:00:00 13 7 Noroeste 24 Oeste 0 897.1 -0.2 37
2019-05-18 17:00:00 13.9 11 Noroeste 27 Oeste 0 896.9 -0.4 36
2019-05-18 16:00:00 13.6 10 Noroeste 28 Noroeste 0 897.2 -0.3 35
2019-05-18 15:00:00 13.5 13 Noroeste 27 Noroeste 0 897.3 0 37
2019-05-18 14:00:00 13.2 6 Norte 22 Norte 0 897.3 0.1 37
2019-05-18 13:00:00 12.4 2 Sur 22 Sudeste 0 897.5 0.7 37
2019-05-18 12:00:00 11.1 2 Este 21 Sudoeste 0 897.3 0.7 41
2019-05-18 11:00:00 8.7 4 Oeste 15 Sudeste 0 897.2 0.7 45
2019-05-18 10:00:00 9.4 5 Este 11 Este 0 896.8 1 46
2019-05-18 09:00:00 7.1 0 Calma 10 Sudoeste 0 896.6 1.1 50
2019-05-18 08:00:00 4.7 4 Norte 20 Noroeste 0 896.5 0.8 53
2019-05-18 07:00:00 3.8 2 Oeste 11 Este 0 895.8 -0.3 57
2019-05-18 06:00:00 3.9 2 Noroeste 22 Oeste 0 895.5 -0.9 55
2019-05-18 05:00:00 5.5 9 Oeste 24 Noroeste 0 895.7 -1.2 51
2019-05-18 04:00:00 5.7 6 Noroeste 17 Oeste 0 896.1 -1 54
2019-05-18 03:00:00 7 7 Noroeste 18 Noroeste 0 896.4 -1 53
2019-05-18 02:00:00 7.1 8 Noroeste 20 Noroeste 0 896.9 -0.4 53
2019-05-18 01:00:00 7.9 8 Noroeste 23 Noroeste 0 897.1 0 52
2019-05-18 00:00:00 9.7 10 Oeste 24 Noroeste 0 897.4 0.6 49
2019-05-17 23:00:00 10.2 9 Noroeste 23 Oeste 0 897.3 0.6 47
2019-05-17 22:00:00 10.8 10 Noroeste 27 Oeste 0 897.1 0.6 45
2019-05-17 21:00:00 10.4 6 Noroeste 19 Noroeste 0 896.8 0.1 51
2019-05-17 20:00:00 11.2 8 Norte 21 Norte 0 896.7 0 50
2019-05-17 19:00:00 12.5 10 Noroeste 24 Noroeste 0 896.5 -0.6 43
2019-05-17 18:00:00 12.1 6 Noroeste 13 Noroeste 0 896.7 -0.8 45
2019-05-17 17:00:00 13.7 4 Noroeste 17 Noroeste 0 896.7 -1 46
2019-05-17 16:00:00 12.6 7 Noroeste 20 Noroeste 0 897.1 -0.3 51
2019-05-17 15:00:00 10.1 10 Noroeste 22 Oeste 0.2 897.5 1 61
2019-05-17 14:00:00 9 7 Oeste 35 Noroeste 0.1 897.7 1.5 63
2019-05-17 13:00:00 9.7 15 Oeste 42 Oeste 0 897.4 1.5 55
2019-05-17 12:00:00 9.1 14 Oeste 37 Oeste 0 896.5 1.5 58
2019-05-17 11:00:00 7.6 12 Sudoeste 24 Oeste 0 896.2 1.7 62
2019-05-17 10:00:00 8 7 Sudoeste 42 Noroeste 0 895.9 2.1 62
2019-05-17 09:00:00 8.1 15 Noroeste 37 Noroeste 0 895 1.7 59
2019-05-17 08:00:00 7.4 17 Norte 37 Norte 0 894.5 0.7 60
2019-05-17 07:00:00 6.5 10 Norte 32 Noroeste 0 893.8 0.5 63
2019-05-17 06:00:00 6.3 13 Noroeste 80 Noroeste 0 893.3 0 66
2019-05-17 05:00:00 6.9 12 Noroeste 29 Noroeste 0 893.8 1 62
2019-05-17 04:00:00 7.1 13 Sudeste 23 Sudeste 0 893.3 0.8 62
2019-05-17 03:00:00 7.8 11 Norte 36 Noroeste 0 893.3 0.5 59
2019-05-17 02:00:00 8.1 8 Noroeste 40 Noroeste 0 892.8 0.7 61
2019-05-17 01:00:00 8.6 12 Noroeste 47 Oeste 0 892.5 1 58
2019-05-17 00:00:00 9.2 10 Noroeste 66 Oeste 0.3 892.8 1.4 66
2019-05-16 23:00:00 13.5 17 Oeste 37 Oeste 0 892.1 0.5 45
2019-05-16 22:00:00 15.4 6 Noroeste 19 Oeste 0 891.5 -0.1 38
2019-05-16 21:00:00 17.2 10 Oeste 29 Oeste 0 891.4 -0.3 35
2019-05-16 20:00:00 20.1 15 Oeste 36 Oeste 0 891.6 -1.1 30
2019-05-16 19:00:00 23.3 12 Oeste 49 Sudoeste 0 891.6 -2.6 28
2019-05-16 18:00:00 24.9 18 Sudoeste 39 Sudoeste 0 891.7 -3.5 25
2019-05-16 17:00:00 25.2 13 Sudoeste 36 Sudoeste 0 892.7 -3.2 26
2019-05-16 16:00:00 25.1 14 Sudoeste 34 Sudoeste 0 894.2 -2.6 27
2019-05-16 15:00:00 23.5 14 Sudoeste 32 Sudoeste 0 895.2 -2 30
2019-05-16 14:00:00 22.7 13 Sudoeste 23 Sudoeste 0 895.9 -1.7 30
2019-05-16 13:00:00 21 9 Sudeste 24 Sudeste 0 896.8 -1.3 31
2019-05-16 12:00:00 20.3 6 Sur 16 Sudeste 0 897.2 -0.9 30
2019-05-16 11:00:00 18.3 7 Sur 17 Este 0 897.6 -0.8 31
2019-05-16 10:00:00 15.9 7 Sudeste 12 Sudeste 0 898.1 -0.3 31
2019-05-16 09:00:00 16.8 6 Sudeste 10 Sudeste 0 898.1 -0.7 29
2019-05-16 08:00:00 15.3 7 Este 9 Este 0 898.4 -0.5 28
2019-05-16 07:00:00 14 3 Norte 8 Norte 0 898.4 -0.4 29
2019-05-16 06:00:00 14.3 3 Norte 17 Este 0 898.8 0.1 28
2019-05-16 05:00:00 14.8 7 Este 15 Este 0 898.9 -0.5 27
2019-05-16 04:00:00 13.2 5 Noroeste 9 Este 0 898.8 -0.6 27
2019-05-16 03:00:00 16.6 0 Calma 10 Noroeste 0 898.7 -0.9 23
2019-05-16 02:00:00 17.5 2 Nordeste 13 Este 0 899.4 -0.8 22
2019-05-16 01:00:00 18.5 6 Norte 24 Norte 0 899.4 -0.1 21
2019-05-16 00:00:00 19.8 14 Norte 24 Norte 0 899.6 0.5 20
2019-05-15 23:00:00 19.4 8 Norte 17 Norte 0 900.2 1.2 19
2019-05-15 22:00:00 20.6 7 Norte 22 Norte 0 899.5 0.5 19
2019-05-15 21:00:00 22.2 8 Norte 21 Norte 0 899.1 0 17
2019-05-15 20:00:00 24.8 10 Norte 24 Noroeste 0 899 0 15
2019-05-15 19:00:00 27.9 9 Norte 31 Norte 0 899 -0.5 14
2019-05-15 18:00:00 27.4 15 Norte 33 Norte 0 899.1 -0.5 15
2019-05-15 17:00:00 28.5 13 Norte 29 Nordeste 0 899 -1 14
2019-05-15 16:00:00 28 8 Norte 21 Norte 0 899.5 -0.9 15
2019-05-15 15:00:00 28.2 4 Este 18 Este 0 899.6 -1 15
2019-05-15 14:00:00 27.6 6 Sudeste 15 Sudeste 0 900 -0.8 16
2019-05-15 13:00:00 26.7 2 Noroeste 18 Oeste 0 900.4 -0.4 17
2019-05-15 12:00:00 25.8 3 Noroeste 19 Norte 0 900.6 -0.1 18
2019-05-15 11:00:00 24.3 12 Noroeste 28 Noroeste 0 900.8 0.3 19
2019-05-15 10:00:00 22.8 10 Noroeste 21 Noroeste 0 900.8 0.6 21
2019-05-15 09:00:00 21 7 Norte 17 Noroeste 0 900.7 0.5 24
2019-05-15 08:00:00 17.4 0 Calma 12 Sudeste 0 900.5 0.1 26
2019-05-15 07:00:00 17.5 5 Sur 16 Noroeste 0 900.2 -0.3 24
2019-05-15 06:00:00 18.3 6 Noroeste 15 Noroeste 0 900.2 -0.6 22
2019-05-15 05:00:00 17.2 2 Oeste 9 Oeste 0 900.4 -0.8 23
2019-05-15 04:00:00 18 5 Norte 13 Norte 0 900.5 -1.2 22
2019-05-15 03:00:00 17.8 0 Calma 8 Norte 0 900.8 -1.2 23
2019-05-15 02:00:00 17.6 4 Oeste 12 Norte 0 901.2 -0.9 24
2019-05-15 01:00:00 17.4 6 Norte 16 Nordeste 0 901.7 -0.2 24
2019-05-15 00:00:00 19.4 5 Nordeste 19 Norte 0 902 0.2 23
2019-05-14 23:00:00 19.5 4 Noroeste 11 Sudoeste 0 902.1 0.6 27
2019-05-14 22:00:00 21 8 Sudoeste 14 Sudoeste 0 901.9 0 26
2019-05-14 21:00:00 22.6 5 Sudoeste 13 Sudoeste 0 901.8 -0.4 25
2019-05-14 20:00:00 24.9 5 Sudoeste 14 Sur 0 901.5 -1.1 23
2019-05-14 19:00:00 26 4 Sur 19 Sur 0 901.9 -1.1 23
2019-05-14 18:00:00 25.3 6 Sur 13 Sudeste 0 902.2 -1.6 24
2019-05-14 17:00:00 24.9 5 Sur 16 Sur 0 902.6 -1.6 24
2019-05-14 16:00:00 23.5 6 Sudeste 17 Sudeste 0 903 -1.8 25
2019-05-14 15:00:00 23 4 Este 14 Sur 0 903.8 -1.4 25
2019-05-14 14:00:00 21.6 0 Calma 14 Sur 0 904.2 -1.1 26
2019-05-14 13:00:00 20.1 7 Este 26 Este 0 904.8 -0.6 26
2019-05-14 12:00:00 18.6 5 Sudeste 21 Sudeste 0 905.2 -0.3 26
2019-05-14 11:00:00 17.8 6 Este 12 Este 0 905.3 -0.4 27
2019-05-14 10:00:00 16.6 2 Sudeste 14 Sudeste 0 905.4 -0.1 32
2019-05-14 09:00:00 14.8 3 Sur 6 Oeste 0 905.5 0.2 34
2019-05-14 08:00:00 12.1 3 Noroeste 6 Norte 0 905.7 0.1 33
2019-05-14 07:00:00 11 2 Noroeste 4 Noroeste 0 905.5 0 34
2019-05-14 06:00:00 11.2 3 Norte 5 Sudeste 0 905.3 -0.7 31
2019-05-14 05:00:00 12.5 4 Este 13 Este 0 905.6 -0.5 26
2019-05-14 04:00:00 12.6 8 Nordeste 17 Nordeste 0 905.5 -0.1 26
2019-05-14 03:00:00 13.1 8 Nordeste 13 Este 0 906 0.6 23
2019-05-14 02:00:00 15 6 Norte 19 Norte 0 906.1 1.2 22
2019-05-14 01:00:00 17.3 8 Nordeste 29 Nordeste 0 905.6 1.2 20
2019-05-14 00:00:00 17.6 19 Nordeste 30 Nordeste 0 905.4 1.4 22
2019-05-13 23:00:00 17.5 19 Este 61 Este 0 904.9 1.2 23
2019-05-13 22:00:00 19.6 18 Este 27 Este 0 904.4 0.5 23
2019-05-13 21:00:00 22.1 8 Nordeste 18 Este 0 904 0.1 20
2019-05-13 20:00:00 25.7 4 Nordeste 16 Nordeste 0 903.7 -0.6 18
2019-05-13 19:00:00 27.7 6 Este 19 Este 0 903.9 -0.8 16
2019-05-13 18:00:00 27.5 4 Nordeste 25 Sudeste 0 903.9 -1.2 17
2019-05-13 17:00:00 26.9 6 Sudeste 18 Este 0 904.3 -1.3 18
2019-05-13 16:00:00 26.2 7 Este 21 Sudeste 0 904.7 -1.6 21
2019-05-13 15:00:00 25.4 4 Nordeste 15 Sudeste 0 905.1 -1.3 22
2019-05-13 14:00:00 24.2 3 Sudeste 15 Sur 0 905.6 -1 23
2019-05-13 13:00:00 22 8 Sur 18 Sudeste 0 906.3 -0.5 25
2019-05-13 12:00:00 19.7 10 Sur 16 Sudeste 0 906.4 -0.7 28
2019-05-13 11:00:00 19.2 7 Sur 12 Oeste 0 906.6 -0.6 31
2019-05-13 10:00:00 17.8 4 Noroeste 12 Noroeste 0 906.8 -0.2 27
2019-05-13 09:00:00 13.9 7 Noroeste 13 Noroeste 0 907.1 -0.1 30
2019-05-13 08:00:00 12.6 8 Noroeste 12 Noroeste 0 907.2 -0.3 31
2019-05-13 07:00:00 11.1 5 Norte 9 Norte 0 907 -0.6 32
2019-05-13 06:00:00 11.1 6 Norte 10 Norte 0 907.2 -0.7 32
2019-05-13 05:00:00 10.8 7 Noroeste 11 Noroeste 0 907.5 -0.8 34
2019-05-13 04:00:00 10.9 4 Norte 7 Noroeste 0 907.6 -0.7 32
2019-05-13 03:00:00 12.6 4 Sudoeste 9 Sur 0 907.9 -0.6 29
2019-05-13 02:00:00 12.6 5 Noroeste 8 Noroeste 0 908.3 -0.3 29
2019-05-13 01:00:00 13.3 5 Oeste 9 Oeste 0 908.3 0.1 29
2019-05-13 00:00:00 15.1 2 Noroeste 13 Este 0 908.5 0.3 23
2019-05-12 23:00:00 16.9 8 Este 17 Nordeste 0 908.6 0.4 21
2019-05-12 22:00:00 17.6 8 Norte 16 Nordeste 0 908.2 -0.2 22
2019-05-12 21:00:00 20.3 7 Este 13 Este 0 908.2 -0.5 23
2019-05-12 20:00:00 22.9 5 Sudeste 10 Este 0 908.2 -0.8 20
2019-05-12 19:00:00 23.6 6 Este 14 Sudeste 0 908.4 -1.2 21
2019-05-12 18:00:00 23.6 5 Sudeste 12 Sudeste 0 908.7 -1.1 21
2019-05-12 17:00:00 23.7 5 Nordeste 13 Este 0 909 -1.5 22
2019-05-12 16:00:00 22.7 4 Oeste 11 Sudeste 0 909.6 -1.6 24
2019-05-12 15:00:00 20.9 9 Este 18 Sudeste 0 909.8 -1.6 25
2019-05-12 14:00:00 19.9 8 Este 15 Este 0 910.5 -0.9 26
2019-05-12 13:00:00 18.5 3 Este 12 Nordeste 0 911.2 -0.2 26
2019-05-12 12:00:00 16.7 0 Calma 13 Este 0 911.4 0.1 28
2019-05-12 11:00:00 15.3 2 Este 9 Sudeste 0 911.4 0.1 33
2019-05-12 10:00:00 12.7 6 Sudeste 12 Sur 0 911.4 0 35
2019-05-12 09:00:00 10.1 2 Noroeste 9 Noroeste 0 911.3 0 43
2019-05-12 08:00:00 6.5 6 Noroeste 12 Noroeste 0 911.3 0.5 50
2019-05-12 07:00:00 6 6 Noroeste 14 Noroeste 0 911.4 0.9 50
2019-05-12 06:00:00 5.4 9 Noroeste 30 Nordeste 0 911.3 0.6 57
2019-05-12 05:00:00 9 13 Nordeste 37 Este 0 910.8 0.1 37
2019-05-12 04:00:00 9.2 23 Nordeste 35 Este 0 910.5 0.1 39
2019-05-12 03:00:00 9.4 12 Este 24 Este 0 910.7 0.9 38
2019-05-12 02:00:00 10.3 19 Este 28 Este 0 910.7 0.8 34
2019-05-12 01:00:00 12.3 15 Este 36 Norte 0 910.4 1.6 25
2019-05-12 00:00:00 14.1 20 Norte 38 Norte 0 909.8 1.6 20
2019-05-11 23:00:00 14 17 Norte 44 Norte 0 909.9 1.9 25
2019-05-11 22:00:00 15.5 19 Norte 45 Nordeste 0 908.8 1.1 23
2019-05-11 21:00:00 17.3 12 Norte 35 Nordeste 0 908.2 0.9 24
2019-05-11 20:00:00 20.6 15 Norte 36 Nordeste 0 908 0.6 23
2019-05-11 19:00:00 23.1 12 Norte 27 Norte 0 907.7 0.1 22
2019-05-11 18:00:00 23 4 Sudoeste 31 Sudeste 0 907.3 -0.4 22
2019-05-11 17:00:00 23 8 Este 21 Sudeste 0 907.4 0 22
2019-05-11 16:00:00 22.5 6 Sudeste 19 Este 0 907.6 -0.3 26
2019-05-11 15:00:00 21.6 12 Sudeste 22 Este 0 907.7 0.2 27
2019-05-11 14:00:00 21.2 2 Sudoeste 36 Sudoeste 0 907.4 0.1 28
2019-05-11 13:00:00 20.5 5 Este 11 Este 0 907.9 1.1 34
2019-05-11 12:00:00 18.6 4 Sur 19 Sur 0 907.5 1 37
2019-05-11 11:00:00 17.8 0 Calma 10 Sur 0 907.3 1.3 41
2019-05-11 10:00:00 16 2 Sur 8 Sur 0 906.8 1.6 46
2019-05-11 09:00:00 14.1 3 Sudoeste 6 Sudoeste 0 906.5 1.5 51
2019-05-11 08:00:00 11.7 3 Noroeste 6 Noroeste 0 906 1.2 53
2019-05-11 07:00:00 10.8 4 Oeste 7 Noroeste 0 905.2 0.7 53
2019-05-11 06:00:00 11.4 0 Calma 10 Este 0 905 0.4 53
2019-05-11 05:00:00 12.3 7 Este 9 Este 0 904.8 0.1 53
2019-05-11 04:00:00 12.6 3 Nordeste 11 Nordeste 0 904.5 0 50
2019-05-11 03:00:00 12.7 3 Este 6 Nordeste 0 904.6 0 50
2019-05-11 02:00:00 13.2 2 Noroeste 17 Oeste 0 904.7 0.6 48
2019-05-11 01:00:00 14.7 9 Oeste 21 Oeste 0 904.5 1.2 47
2019-05-11 00:00:00 14.7 4 Oeste 17 Noroeste 0 904.6 1.9 47
2019-05-10 23:00:00 14.9 4 Noroeste 15 Noroeste 0 904.1 1.9 49
2019-05-10 22:00:00 16.3 8 Noroeste 20 Oeste 0 903.3 1.3 48
2019-05-10 21:00:00 17.9 7 Noroeste 24 Noroeste 0 902.7 0.8 44
2019-05-10 20:00:00 19.6 8 Oeste 26 Sudoeste 0 902.2 0.5 43
2019-05-10 19:00:00 20.1 16 Sudoeste 28 Sudoeste 0 902 0.1 47
2019-05-10 18:00:00 19.7 14 Sudoeste 32 Sudoeste 0 901.9 -0.1 46
2019-05-10 17:00:00 20.3 21 Sudoeste 37 Sudoeste 0 901.7 -0.5 46
2019-05-10 16:00:00 20.2 17 Sudoeste 36 Sudoeste 0 901.9 -0.6 46
2019-05-10 15:00:00 19.5 14 Sur 33 Sudoeste 0 902 -0.5 51
2019-05-10 14:00:00 18.9 15 Sur 30 Sur 0 902.2 -0.2 55
2019-05-10 13:00:00 17.5 9 Sur 26 Sur 0 902.5 0.4 57
2019-05-10 12:00:00 16.8 12 Sur 27 Sudoeste 0 902.5 0.7 64
2019-05-10 11:00:00 15.8 9 Sur 21 Sur 0 902.4 0.9 72
2019-05-10 10:00:00 13.9 8 Sur 20 Sudoeste 0 902.1 1.1 89
2019-05-10 09:00:00 11.7 10 Sudoeste 18 Sudoeste 0 901.8 0.9 99
2019-05-10 08:00:00 11.3 9 Sudoeste 20 Sudoeste 0 901.5 0.6 99
2019-05-10 07:00:00 11 2 Sur 12 Sudoeste 0 901 0.2 99
2019-05-10 06:00:00 10.8 6 Sudoeste 15 Sudoeste 0 900.9 -0.1 99
2019-05-10 05:00:00 11.2 9 Sudoeste 19 Sudoeste 0 900.9 -0.4 99
2019-05-10 04:00:00 11.8 10 Sudoeste 19 Sudoeste 0 900.8 -0.4 99
2019-05-10 03:00:00 12.4 10 Sudoeste 17 Sudoeste 0 901 -0.2 99
2019-05-10 02:00:00 12.4 9 Sudoeste 28 Sudoeste 0 901.3 0.2 99
2019-05-10 01:00:00 12.3 14 Sudoeste 25 Sudoeste 0 901.2 0.7 99
2019-05-10 00:00:00 12.5 9 Sudoeste 18 Sudoeste 0 901.2 1.2 95
2019-05-09 23:00:00 13.4 10 Sudoeste 23 Sudoeste 0 901.1 1.5 88
2019-05-09 22:00:00 13.8 11 Sudoeste 31 Sudoeste 0 900.5 0.8 83
2019-05-09 21:00:00 14.5 19 Sudoeste 33 Sudoeste 0 900 0.3 73
2019-05-09 20:00:00 15.6 8 Sudoeste 24 Sudoeste 0 899.6 -0.5 61
2019-05-09 19:00:00 15.4 3 Oeste 15 Sudoeste 0 899.7 -0.9 59
2019-05-09 18:00:00 15.3 4 Sudoeste 13 Norte 0 899.7 -0.9 55
2019-05-09 17:00:00 14.9 6 Noroeste 29 Oeste 0 900.1 -0.9 54
2019-05-09 16:00:00 16.8 12 Oeste 33 Sudoeste 0 900.6 -0.5 42
2019-05-09 15:00:00 17.9 15 Sudoeste 34 Sur 0 900.6 -0.6 38
2019-05-09 14:00:00 16.4 16 Sudoeste 34 Sudoeste 0 901 -0.3 40
2019-05-09 13:00:00 15.5 15 Sudoeste 32 Sudoeste 0 901.1 -0.1 40
2019-05-09 12:00:00 14.4 12 Sudoeste 22 Oeste 0 901.2 0.2 42
2019-05-09 11:00:00 13.6 8 Sur 13 Sur 0 901.3 0.8 44
2019-05-09 10:00:00 12.4 5 Este 12 Sudeste 0 901.2 1.3 45
2019-05-09 09:00:00 10.6 5 Este 14 Este 0 901 1.2 49
2019-05-09 08:00:00 8 6 Este 12 Este 0 900.5 0.6 57
2019-05-09 07:00:00 6.7 6 Este 22 Oeste 0 899.9 0 56
2019-05-09 06:00:00 7.4 11 Sudoeste 24 Sudoeste 0 899.8 -0.1 54
2019-05-09 05:00:00 7 11 Sur 23 Sudoeste 0 899.9 0 60
2019-05-09 04:00:00 7.1 9 Sudeste 24 Oeste 0 899.9 -0.2 59
2019-05-09 03:00:00 7.8 12 Oeste 37 Oeste 0 899.9 -0.1 53
2019-05-09 02:00:00 8.5 18 Oeste 37 Oeste 0 899.9 0 49
2019-05-09 01:00:00 9.5 17 Oeste 32 Sudoeste 0 900.1 0.8 47
2019-05-09 00:00:00 9.8 13 Oeste 29 Oeste 0 900 1.6 45
2019-05-08 23:00:00 11.1 10 Oeste 28 Oeste 0 899.9 1.9 43
2019-05-08 22:00:00 13.1 13 Oeste 33 Sudoeste 0 899.3 1.4 42
2019-05-08 21:00:00 13.8 14 Sudoeste 38 Oeste 0 898.4 0.7 41
2019-05-08 20:00:00 13.6 22 Sudoeste 48 Sudoeste 0 898 0 70
2019-05-08 19:00:00 15.8 24 Sudoeste 49 Sudoeste 0 897.9 -0.4 55
2019-05-08 18:00:00 15.5 26 Sudoeste 50 Sudoeste 0 897.7 -0.5 55
2019-05-08 17:00:00 15.8 31 Sudoeste 53 Sudoeste 0 898 -0.3 55
2019-05-08 16:00:00 14.4 24 Sudoeste 56 Sudoeste 0 898.3 -0.4 75
2019-05-08 15:00:00 13.8 28 Sudoeste 51 Sudoeste 0 898.2 -1 81
2019-05-08 14:00:00 14 21 Sudoeste 43 Sudoeste 0 898.3 -0.7 81
2019-05-08 13:00:00 12.5 20 Sudoeste 47 Sudoeste 0 898.7 -0.5 88
2019-05-08 12:00:00 12.7 24 Sudoeste 41 Sudoeste 0 899.2 0.1 79
2019-05-08 11:00:00 11.8 21 Sudoeste 39 Sudoeste 0 899 0.2 85
2019-05-08 10:00:00 11.2 18 Sudoeste 36 Sudoeste 0 899.2 0.5 91
2019-05-08 09:00:00 10.9 13 Sudoeste 34 Sudoeste 0 899.1 -0.1 99
2019-05-08 08:00:00 10.8 15 Sudoeste 31 Sudoeste 0 898.8 -0.7 99
2019-05-08 07:00:00 10.8 15 Sudoeste 37 Sudoeste 0 898.7 -1.1 98
2019-05-08 06:00:00 11.1 21 Sudoeste 41 Sudoeste 0 899.2 -0.9 93
2019-05-08 05:00:00 11.3 22 Sudoeste 36 Sudoeste 0 899.5 -1.1 88
2019-05-08 04:00:00 11.7 18 Sudoeste 30 Sudoeste 0 899.8 -1.4 87
2019-05-08 03:00:00 12.2 14 Sudoeste 26 Sudoeste 0 900.1 -1.4 84
2019-05-08 02:00:00 12.5 12 Sudoeste 24 Sudoeste 0 900.6 -1 84
2019-05-08 01:00:00 12.8 16 Sudoeste 33 Sudoeste 0 901.2 -0.2 81
2019-05-08 00:00:00 12.9 14 Sudoeste 26 Sudoeste 0 901.5 0.2 75
2019-05-07 23:00:00 13.8 17 Sudoeste 29 Sudoeste 0 901.6 0.5 62
2019-05-07 22:00:00 14.2 13 Sudoeste 32 Sudoeste 0 901.4 0 60
2019-05-07 21:00:00 15.2 21 Sudoeste 42 Sudoeste 0 901.3 -0.3 56
2019-05-07 20:00:00 16.4 23 Sudoeste 40 Sudoeste 0 901.1 -0.7 53
2019-05-07 19:00:00 18 21 Sudoeste 41 Sudoeste 0 901.4 -1.1 47
2019-05-07 18:00:00 19.5 16 Sudoeste 33 Sudoeste 0 901.6 -1 45
2019-05-07 17:00:00 19.5 19 Sudoeste 35 Sudoeste 0 901.8 -1.3 46
2019-05-07 16:00:00 18.5 17 Sudoeste 33 Sudoeste 0 902.5 -1.2 48
2019-05-07 15:00:00 18.2 12 Sur 31 Sur 0 902.6 -1.3 47
2019-05-07 14:00:00 17.7 14 Sur 26 Sur 0 903.1 -0.7 51
2019-05-07 13:00:00 17.3 10 Sudoeste 22 Sur 0 903.7 0.2 56
2019-05-07 12:00:00 14.8 12 Sudeste 17 Sur 0 903.9 0.5 59
2019-05-07 11:00:00 14.1 6 Sudeste 13 Sudeste 0 903.8 0.6 61
2019-05-07 10:00:00 12.7 7 Este 13 Sudeste 0 903.5 0.5 62
2019-05-07 09:00:00 12 4 Este 14 Este 0 903.4 0.3 54
2019-05-07 08:00:00 10.3 2 Este 8 Sudeste 0 903.2 -0.1 55
2019-05-07 07:00:00 10.2 0 Calma 8 Norte 0 903 -0.6 51
2019-05-07 06:00:00 10.1 5 Noroeste 7 Oeste 0 903.1 -0.5 51
2019-05-07 05:00:00 11.8 3 Norte 8 Noroeste 0 903.3 -0.7 46
2019-05-07 04:00:00 12.6 2 Nordeste 9 Este 0 903.6 0 43
2019-05-07 03:00:00 13.1 5 Este 9 Nordeste 0 903.6 0 44
2019-05-07 02:00:00 12.9 4 Sudoeste 7 Sudeste 0 904 -0.1 42
2019-05-07 01:00:00 13.5 4 Sudeste 10 Sudeste 0 903.6 -0.1 39
2019-05-07 00:00:00 13.6 5 Noroeste 13 Oeste 0 903.6 0.3 39
2019-05-06 23:00:00 14.6 7 Oeste 12 Oeste 0 904.1 1.2 38
2019-05-06 22:00:00 15.7 3 Sudoeste 17 Sudoeste 0 903.7 0.9 33
2019-05-06 21:00:00 16.9 6 Sudoeste 24 Sudoeste 0 903.3 0.4 32
2019-05-06 20:00:00 19.7 12 Sudoeste 26 Sudoeste 0 902.9 -0.3 32
2019-05-06 19:00:00 20.3 12 Sudoeste 29 Sudoeste 0 902.8 -0.7 34
2019-05-06 18:00:00 20.9 12 Sur 28 Sudoeste 0 902.9 -0.9 33
2019-05-06 17:00:00 21.4 12 Sur 27 Sudoeste 0 903.2 -0.8 33
2019-05-06 16:00:00 20.6 11 Sur 28 Sudoeste 0 903.5 -1 34
2019-05-06 15:00:00 20.1 12 Sudoeste 26 Sudoeste 0 903.8 -0.9 34
2019-05-06 14:00:00 19.1 10 Sudoeste 23 Sudoeste 0 904 -0.8 36
2019-05-06 13:00:00 17.2 13 Sudeste 22 Sudeste 0 904.5 -0.3 34
2019-05-06 12:00:00 16 9 Sur 20 Sudeste 0 904.7 0 33
2019-05-06 11:00:00 14.5 7 Sur 14 Sur 0 904.8 0.7 31
2019-05-06 10:00:00 12.6 7 Sudoeste 14 Sudoeste 0 904.8 1.1 34
2019-05-06 09:00:00 11 5 Sudoeste 10 Sudoeste 0 904.7 1.3 36
2019-05-06 08:00:00 8.7 3 Sudoeste 7 Sudoeste 0 904.1 0.9 36
2019-05-06 07:00:00 7.9 0 Calma 6 Sur 0 903.7 0.5 37
2019-05-06 06:00:00 8.1 0 Calma 8 Sudeste 0 903.4 0.1 37
2019-05-06 05:00:00 8.9 3 Noroeste 10 Norte 0 903.2 -0.1 35
2019-05-06 04:00:00 9.6 5 Norte 10 Noroeste 0 903.2 -0.1 33
2019-05-06 03:00:00 10.5 0 Calma 8 Sur 0 903.3 0.3 32
2019-05-06 02:00:00 11.3 5 Sudeste 10 Sudeste 0 903.3 0.2 32
2019-05-06 01:00:00 11.2 6 Este 9 Nordeste 0 903.3 0.7 32
2019-05-06 00:00:00 11.3 5 Norte 10 Nordeste 0 903 0.9 34
2019-05-05 23:00:00 12 4 Noroeste 14 Oeste 0 903.1 1 32
2019-05-05 22:00:00 12.8 7 Oeste 15 Oeste 0 902.6 0.6 29
2019-05-05 21:00:00 15.3 5 Oeste 19 Oeste 0 902.1 0.1 30
2019-05-05 20:00:00 17.8 10 Oeste 18 Oeste 0 902.1 -0.3 27
2019-05-05 19:00:00 19.3 5 Este 14 Sudeste 0 902 -1 34
2019-05-05 18:00:00 19 8 Este 17 Sudeste 0 902 -1.2 39
2019-05-05 17:00:00 18.2 7 Sudeste 17 Sur 0 902.4 -0.8 42
2019-05-05 16:00:00 16.9 7 Sudeste 17 Sur 0 903 -0.5 45
2019-05-05 15:00:00 16 9 Sudeste 19 Este 0 903.2 -0.1 47
2019-05-05 14:00:00 14.6 3 Este 17 Sudeste 0 903.2 0.3 50
2019-05-05 13:00:00 13.6 7 Sudeste 16 Sudeste 0 903.5 0.8 52
2019-05-05 12:00:00 12.3 8 Sudeste 17 Sudeste 0 903.3 0.7 55
2019-05-05 11:00:00 11.1 7 Sudeste 14 Sudeste 0 902.9 0.9 59
2019-05-05 10:00:00 9.8 4 Este 22 Este 0 902.7 1.4 61
2019-05-05 09:00:00 7 3 Sur 9 Este 0 902.6 1.3 75
2019-05-05 08:00:00 5.3 3 Este 9 Oeste 0 902 0.3 81
2019-05-05 07:00:00 4 4 Noroeste 6 Oeste 0 901.3 0.1 79
2019-05-05 06:00:00 5.1 4 Sudoeste 14 Oeste 0 901.3 0 75
2019-05-05 05:00:00 6.1 0 Calma 18 Este 0 901.7 0.3 68
2019-05-05 04:00:00 6.7 10 Este 15 Este 0 901.2 -0.2 64
2019-05-05 03:00:00 8.2 0 Calma 19 Nordeste 0 901.3 0.2 53
2019-05-05 02:00:00 9.4 6 Este 11 Sudeste 0 901.4 0.3 45
2019-05-05 01:00:00 11.7 4 Nordeste 8 Sur 0 901.4 0.5 38
2019-05-05 00:00:00 12.3 4 Norte 23 Norte 0 901.1 0.9 37
2019-05-04 23:00:00 13.5 11 Norte 25 Noroeste 0 901.1 1.2 35
2019-05-04 22:00:00 13.5 11 Norte 22 Norte 0 900.9 1 33
2019-05-04 21:00:00 15.2 10 Norte 22 Noroeste 0 900.2 0.4 32
2019-05-04 20:00:00 18.2 10 Norte 25 Norte 0 899.9 0.1 30
2019-05-04 19:00:00 19.6 11 Norte 26 Norte 0 899.9 -0.1 30
2019-05-04 18:00:00 19.4 6 Nordeste 26 Nordeste 0 899.8 -0.3 29
2019-05-04 17:00:00 18.9 4 Este 22 Sudoeste 0 899.8 -0.4 33
2019-05-04 16:00:00 18.4 6 Sudeste 20 Sudeste 0 900 -0.5 33
2019-05-04 15:00:00 17.3 8 Sur 20 Sudeste 0 900.1 -0.7 36
2019-05-04 14:00:00 16.2 5 Sudeste 15 Este 0 900.2 -0.5 35
2019-05-04 13:00:00 15.2 2 Sur 16 Sudeste 0 900.5 -0.1 41
2019-05-04 12:00:00 12.8 6 Sudeste 13 Sudeste 0 900.8 0 46
2019-05-04 11:00:00 10.3 7 Sur 13 Sur 0 900.7 0.1 58
2019-05-04 10:00:00 9 0 Calma 7 Sur 0 900.6 0.2 64
2019-05-04 09:00:00 4.6 3 Oeste 8 Noroeste 0 900.8 0.8 76
2019-05-04 08:00:00 3.1 3 Noroeste 6 Oeste 0 900.6 0.7 82
2019-05-04 07:00:00 2 4 Noroeste 7 Oeste 0 900.4 0.7 84
2019-05-04 06:00:00 2.9 2 Oeste 10 Sudoeste 0 900 -0.2 81
2019-05-04 05:00:00 3.2 4 Oeste 8 Oeste 0 899.9 -0.7 79
2019-05-04 04:00:00 3.8 4 Noroeste 13 Este 0 899.7 -0.7 72
2019-05-04 03:00:00 4.4 5 Nordeste 10 Nordeste 0 900.2 0 70
2019-05-04 02:00:00 5.5 8 Nordeste 20 Este 0 900.6 0.8 66
2019-05-04 01:00:00 6.2 11 Este 25 Este 0 900.4 0.9 60
2019-05-04 00:00:00 7.9 0 Calma 23 Este 0 900.2 1.4 51
2019-05-03 23:00:00 8.4 13 Nordeste 25 Nordeste 0 899.8 1.4 53
2019-05-03 22:00:00 9.5 8 Nordeste 24 Nordeste 0 899.5 1.6 49
2019-05-03 21:00:00 11.2 9 Nordeste 24 Nordeste 0 898.8 1.2 42
2019-05-03 20:00:00 14 8 Nordeste 23 Norte 0 898.4 1.1 39
2019-05-03 19:00:00 15.4 12 Nordeste 27 Nordeste 0 897.9 0.5 37
2019-05-03 18:00:00 14.5 9 Nordeste 34 Este 0 897.6 0.1 37
2019-05-03 17:00:00 15.4 19 Este 41 Este 0 897.3 -0.4 39
2019-05-03 16:00:00 15.7 15 Nordeste 37 Nordeste 0 897.4 -0.3 41
2019-05-03 15:00:00 16.4 10 Nordeste 36 Nordeste 0 897.5 -0.2 41
2019-05-03 14:00:00 15.8 17 Norte 37 Norte 0 897.7 0.2 41
2019-05-03 13:00:00 14.9 9 Norte 24 Norte 0 897.7 -0.2 42
2019-05-03 12:00:00 16.2 9 Sur 16 Sudeste 0 897.7 -0.1 53
2019-05-03 11:00:00 15.2 7 Sur 14 Sudeste 0 897.5 -0.6 58
2019-05-03 10:00:00 14 0 Calma 10 Sudoeste 0 897.9 -0.3 61
2019-05-03 09:00:00 11.7 2 Sudoeste 7 Sudoeste 0 897.8 0 68
2019-05-03 08:00:00 9.3 2 Noroeste 5 Noroeste 0 898.1 -0.8 75
2019-05-03 07:00:00 9.2 2 Sur 7 Nordeste 0 898.2 -1.3 74
2019-05-03 06:00:00 9.7 5 Nordeste 8 Nordeste 0 897.8 -1.9 69
2019-05-03 05:00:00 10.3 0 Calma 9 Norte 0 898.9 -1.1 67
2019-05-03 04:00:00 10.7 3 Noroeste 14 Nordeste 0 899.5 -0.6 65
2019-05-03 03:00:00 11.9 11 Este 21 Este 0 899.7 -0.4 62
2019-05-03 02:00:00 12.1 6 Este 18 Este 0 900 0.2 62
2019-05-03 01:00:00 12.9 9 Nordeste 15 Nordeste 0 900.1 0.6 62
2019-05-03 00:00:00 13.4 10 Este 24 Este 0 900.1 1.2 58
2019-05-02 23:00:00 14.5 16 Nordeste 28 Nordeste 0 899.8 1.1 50
2019-05-02 22:00:00 15.2 7 Nordeste 17 Nordeste 0 899.5 0.8 50
2019-05-02 21:00:00 17.4 6 Nordeste 9 Nordeste 0 898.9 0 49
2019-05-02 20:00:00 19.9 5 Sudeste 12 Este 0 898.7 -0.7 43
2019-05-02 19:00:00 20.8 0 Calma 13 Este 0 898.7 -1.1 42
2019-05-02 18:00:00 20.4 0 Calma 11 Este 0.1 898.9 -1.3 45
2019-05-02 17:00:00 18.1 7 Este 13 Sudeste 0.1 899.4 -1.3 54
2019-05-02 16:00:00 18.3 8 Sudeste 14 Sudeste 0 899.8 -1.3 52
2019-05-02 15:00:00 18.3 4 Sur 15 Sudeste 0 900.2 -1.3 53
2019-05-02 14:00:00 18.1 10 Sudeste 18 Sudeste 0 900.7 -0.7 53
2019-05-02 13:00:00 18.4 9 Este 18 Nordeste 0 901.1 -0.2 53
2019-05-02 12:00:00 16.9 8 Este 18 Sudeste 0 901.5 0.5 55
2019-05-02 11:00:00 15.7 10 Sudeste 19 Sudeste 0 901.4 0.8 58
2019-05-02 10:00:00 14.7 10 Este 18 Este 0 901.3 1.2 59
2019-05-02 09:00:00 13.4 12 Este 20 Este 0 901 0.8 61
2019-05-02 08:00:00 11.9 8 Nordeste 13 Este 0 900.6 0.2 63
2019-05-02 07:00:00 10.7 5 Nordeste 12 Nordeste 0 900.1 -0.5 62
2019-05-02 06:00:00 11.1 5 Nordeste 10 Nordeste 0 900.2 -0.5 62
2019-05-02 05:00:00 11.3 3 Norte 9 Nordeste 0 900.4 -0.6 63
2019-05-02 04:00:00 11.7 7 Nordeste 15 Nordeste 0 900.6 0.2 60
2019-05-02 03:00:00 11.8 7 Nordeste 21 Nordeste 0 900.7 0.7 57
2019-05-02 02:00:00 12.5 7 Nordeste 36 Nordeste 0 901 1.2 53
2019-05-02 01:00:00 13.2 24 Nordeste 38 Este 0 900.4 1.3 51
2019-05-02 00:00:00 13.7 25 Este 39 Este 0 900 1.2 47
2019-05-01 23:00:00 15.3 8 Sudeste 14 Este 0 899.8 1.2 41
2019-05-01 22:00:00 16 3 Noroeste 23 Oeste 0 899.1 0.1 39
2019-05-01 21:00:00 16.6 13 Oeste 25 Oeste 0 898.8 -0.4 38
2019-05-01 20:00:00 16.7 11 Oeste 27 Oeste 0 898.6 -0.6 39
2019-05-01 19:00:00 16.5 10 Oeste 31 Oeste 0 899 -0.4 39
2019-05-01 18:00:00 17.4 8 Noroeste 29 Sudoeste 0 899.2 -0.4 40
2019-05-01 17:00:00 18.7 9 Oeste 20 Oeste 0 899.2 -1.1 37
2019-05-01 16:00:00 20.7 9 Sur 21 Sudeste 0 899.4 -1.3 33
2019-05-01 15:00:00 20.5 6 Sudeste 17 Sur 0 899.6 -1.4 33
2019-05-01 14:00:00 20.1 9 Sur 17 Sur 0 900.3 -0.6 35
2019-05-01 13:00:00 19.2 5 Sudeste 20 Este 0 900.7 -0.1 38
2019-05-01 12:00:00 19 7 Sudeste 13 Este 0 901 0.2 40
2019-05-01 11:00:00 18.2 4 Sudeste 13 Este 0 900.9 0.2 36
2019-05-01 10:00:00 17 4 Sudeste 10 Sudeste 0 900.8 0.6 36
2019-05-01 09:00:00 14 0 Calma 7 Noroeste 0 900.8 0.5 39
2019-05-01 08:00:00 10.3 5 Noroeste 14 Nordeste 0 900.7 0.2 42
2019-05-01 07:00:00 11.3 7 Norte 12 Norte 0 900.2 -0.5 38
2019-05-01 06:00:00 11.6 5 Norte 12 Norte 0 900.3 -0.8 37
2019-05-01 05:00:00 12.1 7 Norte 14 Norte 0 900.5 -1.1 38
2019-05-01 04:00:00 12.1 6 Norte 13 Norte 0 900.7 -0.8 37
2019-05-01 03:00:00 13.7 6 Nordeste 23 Nordeste 0 901.1 -0.3 35
2019-05-01 02:00:00 14.6 10 Nordeste 24 Nordeste 0 901.6 -0.1 35
2019-05-01 01:00:00 14.6 13 Este 20 Este 0 901.5 0.1 37
2019-05-01 00:00:00 15.5 7 Norte 14 Norte 0 901.4 0.2 38
2019-04-30 23:00:00 15.5 7 Norte 19 Norte 0 901.7 0.7 38
2019-04-30 22:00:00 16.4 8 Nordeste 20 Nordeste 0 901.4 0.4 37
2019-04-30 21:00:00 18.3 9 Norte 20 Norte 0 901.2 -0.1 35
2019-04-30 20:00:00 20.5 4 Nordeste 20 Este 0 901 -0.4 35
2019-04-30 19:00:00 22.1 8 Nordeste 17 Nordeste 0 901 -1.1 33
2019-04-30 18:00:00 22.6 2 Este 22 Sudoeste 0 901.3 -1.3 33
2019-04-30 17:00:00 21.9 3 Sur 19 Sudoeste 0 901.4 -1.5 35
2019-04-30 16:00:00 22.1 10 Sudoeste 19 Sudoeste 0 902.1 -1.4 37
2019-04-30 15:00:00 21.5 5 Sudoeste 18 Sudoeste 0 902.6 -1.2 37
2019-04-30 14:00:00 20.9 5 Sur 15 Sudeste 0 902.9 -1.1 39
2019-04-30 13:00:00 20.1 5 Sur 14 Sudeste 0 903.5 -0.3 40
2019-04-30 12:00:00 19.4 4 Sudeste 13 Sudeste 0 903.8 0.1 41
2019-04-30 11:00:00 18.9 2 Sudeste 17 Este 0 904 0.6 42
2019-04-30 10:00:00 17.7 0 Calma 11 Este 0 903.8 0.7 43
2019-04-30 09:00:00 14.3 2 Noroeste 8 Noroeste 0 903.7 0.6 47
2019-04-30 08:00:00 11.9 5 Noroeste 8 Nordeste 0 903.4 0.5 53
2019-04-30 07:00:00 11.9 0 Calma 7 Norte 0 903.1 0.2 51
2019-04-30 06:00:00 11.3 4 Noroeste 12 Noroeste 0 903.1 -0.2 55
2019-04-30 05:00:00 11.3 5 Noroeste 14 Noroeste 0 902.9 -0.6 55
2019-04-30 04:00:00 12.4 0 Calma 9 Sudeste 0 902.9 -0.6 48
2019-04-30 03:00:00 13.6 3 Nordeste 17 Nordeste 0 903.3 -0.2 45
2019-04-30 02:00:00 14.3 7 Nordeste 19 Nordeste 0 903.5 0.1 42
2019-04-30 01:00:00 14.7 8 Norte 21 Nordeste 0 903.5 0.4 41
2019-04-30 00:00:00 15.3 6 Nordeste 22 Nordeste 0 903.5 0.7 39
2019-04-29 23:00:00 16.3 8 Nordeste 21 Nordeste 0 903.4 0.9 37
2019-04-29 22:00:00 16.8 6 Nordeste 14 Norte 0 903.1 0.5 35
2019-04-29 21:00:00 18.8 4 Este 15 Sudeste 0 902.8 0.2 33
2019-04-29 20:00:00 20.8 5 Sur 15 Sudeste 0 902.5 -0.2 31
2019-04-29 19:00:00 21.8 8 Sudoeste 18 Este 0 902.6 -0.5 31
2019-04-29 18:00:00 21.2 5 Sudoeste 22 Sur 0 902.6 -0.9 31
2019-04-29 17:00:00 21.7 9 Sur 19 Sur 0 902.7 -1.2 31
2019-04-29 16:00:00 20.7 0 Calma 13 Sudoeste 0 903.1 -1.5 33
2019-04-29 15:00:00 20.4 5 Sur 20 Sur 0 903.5 -1.3 33
2019-04-29 14:00:00 19.9 6 Sur 18 Sur 0 903.9 -1.1 36
2019-04-29 13:00:00 19.1 7 Sudeste 20 Sudeste 0 904.6 -0.7 37
2019-04-29 12:00:00 18.3 5 Este 17 Sudeste 0 904.8 -0.6 38
2019-04-29 11:00:00 17.7 5 Sudeste 18 Sudeste 0 905 -0.2 39
2019-04-29 10:00:00 16.7 5 Este 12 Este 0 905.3 0.3 40
2019-04-29 09:00:00 13.4 0 Calma 13 Nordeste 0 905.4 0.3 45
2019-04-29 08:00:00 11.2 4 Norte 18 Nordeste 0 905.2 -0.2 46
2019-04-29 07:00:00 10.9 7 Nordeste 22 Nordeste 0 905 -0.5 45
2019-04-29 06:00:00 10.8 6 Nordeste 16 Nordeste 0 905.1 -0.6 45
2019-04-29 05:00:00 11.9 8 Nordeste 22 Este 0 905.4 -0.6 43
2019-04-29 04:00:00 12.8 10 Nordeste 23 Nordeste 0 905.5 -0.6 41
2019-04-29 03:00:00 13 9 Nordeste 26 Nordeste 0 905.7 -0.2 40
2019-04-29 02:00:00 13 9 Nordeste 19 Este 0 906 -0.2 40
2019-04-29 01:00:00 13.6 5 Nordeste 16 Este 0 906.1 0 42
2019-04-29 00:00:00 14.4 7 Norte 15 Norte 0 905.9 0.1 39
2019-04-28 23:00:00 15.2 6 Nordeste 15 Norte 0 906.2 0.6 39
2019-04-28 22:00:00 16.5 5 Nordeste 14 Norte 0 906.1 0.5 37
2019-04-28 21:00:00 18.1 0 Calma 8 Sudeste 0 905.8 0 36
2019-04-28 20:00:00 19.2 6 Sudeste 9 Sudeste 0 905.6 -0.5 34
2019-04-28 19:00:00 20.7 0 Calma 12 Noroeste 0 905.6 -1.4 35
2019-04-28 18:00:00 20.2 5 Sudeste 15 Sur 0 905.8 -1.8 34
2019-04-28 17:00:00 20.1 6 Sur 19 Sudeste 0 906.1 -1.9 36
2019-04-28 16:00:00 19.4 3 Sudeste 19 Este 0 907 -1.9 38
2019-04-28 15:00:00 18.9 5 Sur 21 Sudeste 0 907.6 -1.6 40
2019-04-28 14:00:00 18 3 Este 16 Este 0 908 -1.4 41
2019-04-28 13:00:00 17.3 3 Sudeste 17 Este 0 908.9 -0.8 43
2019-04-28 12:00:00 16.7 10 Este 17 Este 0 909.2 -0.6 45
2019-04-28 11:00:00 15.8 3 Sudeste 15 Este 0 909.4 -0.1 49
2019-04-28 10:00:00 14.1 8 Este 16 Nordeste 0 909.7 0.6 55
2019-04-28 09:00:00 12 5 Nordeste 18 Este 0 909.8 0.2 64
2019-04-28 08:00:00 8.7 0 Calma 10 Noroeste 0 909.5 -0.1 70
2019-04-28 07:00:00 8.1 7 Noroeste 12 Noroeste 0 909.1 -0.6 72
2019-04-28 06:00:00 8.7 4 Norte 18 Este 0 909.6 -0.4 69
2019-04-28 05:00:00 9.9 11 Nordeste 27 Este 0 909.6 -0.9 67
2019-04-28 04:00:00 10.5 15 Nordeste 29 Nordeste 0 909.7 -0.8 63
2019-04-28 03:00:00 10.3 6 Nordeste 17 Nordeste 0 910 -0.7 58
2019-04-28 02:00:00 10.4 4 Este 13 Este 0 910.5 -0.2 55
2019-04-28 01:00:00 11.7 5 Norte 14 Norte 0 910.5 0.1 51
2019-04-28 00:00:00 12.8 4 Nordeste 10 Nordeste 0 910.7 0.6 49
2019-04-27 23:00:00 12.9 4 Nordeste 15 Nordeste 0 910.7 0.8 48
2019-04-27 22:00:00 14.5 5 Nordeste 12 Nordeste 0 910.4 0.6 42
2019-04-27 21:00:00 15.6 5 Este 8 Sudeste 0 910.1 0.2 38
2019-04-27 20:00:00 16.9 6 Sudeste 15 Sudeste 0 909.9 -0.2 37
2019-04-27 19:00:00 17.5 8 Sudeste 14 Sur 0 909.8 -0.8 36
2019-04-27 18:00:00 17.8 7 Sur 19 Sudeste 0 909.9 -1.4 37
2019-04-27 17:00:00 17.8 8 Este 16 Sudeste 0 910.1 -1.7 38
2019-04-27 16:00:00 16.9 6 Sudeste 16 Sudeste 0 910.6 -1.7 38
2019-04-27 15:00:00 16.2 8 Sur 14 Sur 0 911.3 -0.9 40
2019-04-27 14:00:00 15.2 8 Sur 18 Sur 0 911.8 -0.1 42
2019-04-27 13:00:00 14.4 4 Sudeste 13 Este 0 912.3 0.3 46
2019-04-27 12:00:00 13 6 Sudeste 15 Sur 0 912.2 0.5 49
2019-04-27 11:00:00 11.9 6 Sur 12 Sur 0 911.9 0.7 51
2019-04-27 10:00:00 10.2 3 Sur 7 Sudeste 0 912 1.2 53
2019-04-27 09:00:00 8.4 3 Sur 6 Sur 0 911.7 1.2 56
2019-04-27 08:00:00 6.7 2 Sur 4 Sur 0 911.2 0.6 58
2019-04-27 07:00:00 5.5 0 Calma 6 Este 0 910.8 0.1 60
2019-04-27 06:00:00 5.2 5 Este 13 Sudeste 0 910.5 -0.5 62
2019-04-27 05:00:00 5.5 5 Noroeste 10 Oeste 0 910.6 -0.6 62
2019-04-27 04:00:00 5.3 5 Oeste 9 Noroeste 0 910.7 -0.6 62
2019-04-27 03:00:00 6.2 5 Noroeste 12 Noroeste 0 911 -0.1 54
2019-04-27 02:00:00 6.6 6 Noroeste 10 Noroeste 0 911.2 0.6 50
2019-04-27 01:00:00 7.6 3 Nordeste 7 Nordeste 0 911.3 1.1 47
2019-04-27 00:00:00 7.9 4 Este 12 Este 0 911.1 1.4 47
2019-04-26 23:00:00 8.2 4 Nordeste 16 Nordeste 0 910.6 1.3 46
2019-04-26 22:00:00 8.8 5 Nordeste 11 Nordeste 0 910.2 1.1 43
2019-04-26 21:00:00 10.6 5 Sudoeste 12 Oeste 0 909.7 0.8 39
2019-04-26 20:00:00 13.3 6 Sudoeste 17 Oeste 0 909.3 0.4 33
2019-04-26 19:00:00 13.8 5 Noroeste 19 Oeste 0 909.1 0 32
2019-04-26 18:00:00 14.2 3 Oeste 24 Noroeste 0 908.9 -0.5 33
2019-04-26 17:00:00 13.4 6 Oeste 23 Noroeste 0 908.9 -0.4 35
2019-04-26 16:00:00 12.9 12 Oeste 30 Este 0 909.1 0 36
2019-04-26 15:00:00 11.4 6 Oeste 20 Sudeste 0 909.4 0.6 40
2019-04-26 14:00:00 11.4 7 Sur 19 Sur 0 909.3 1.2 49
2019-04-26 13:00:00 11.5 9 Sudeste 21 Sudeste 0 909.1 1.5 48
2019-04-26 12:00:00 10.3 12 Sudeste 20 Sudeste 0 908.8 2 53
2019-04-26 11:00:00 9.5 12 Este 32 Sudeste 0 908.1 1.8 57
2019-04-26 10:00:00 8.8 10 Este 17 Nordeste 0 907.6 2.1 58
2019-04-26 09:00:00 6.6 4 Noroeste 12 Norte 0 906.8 1.6 66
2019-04-26 08:00:00 4.2 4 Nordeste 12 Este 0 906.3 1.2 75
2019-04-26 07:00:00 4.3 6 Oeste 16 Sudeste 0 905.5 1.1 75
2019-04-26 06:00:00 4.6 6 Sudeste 32 Oeste 0 905.2 1.3 72
2019-04-26 05:00:00 5.1 10 Sur 30 Oeste 0 905.1 1.1 72
2019-04-26 04:00:00 4.9 17 Oeste 39 Oeste 0 904.4 0.9 72
2019-04-26 03:00:00 5 19 Sudoeste 43 Sudoeste 0 903.9 0.8 70
2019-04-26 02:00:00 4.9 21 Sudoeste 41 Sudoeste 0 904 1.5 69
2019-04-26 01:00:00 4.9 18 Sudoeste 33 Sudoeste 0 903.5 2.1 69
2019-04-26 00:00:00 4.8 12 Sudoeste 31 Sudoeste 0 903.1 2.8 75